Time;durP1;ratioP1;P1;durP2;ratioP2;P2;SDS_P1;SDS_P2;PMS_P1;PMS_P2;Temp;Humidity;BMP_temperature;BMP_pressure;BME280_temperature;BME280_humidity;BME280_pressure;Samples;Min_cycle;Max_cycle;Signal;HPM_P1;HPM_P2
2021/05/23 00:00:00;;;;;;;6.00;3.08;;;;;;;12.27;56.99;99831.88;127952;1105;22373;-79
2021/05/23 00:02:57;;;;;;;4.78;3.10;;;;;;;12.24;57.01;99825.94;127976;1104;22736;-79
2021/05/23 00:05:31;;;;;;;5.25;2.90;;;;;;;12.24;57.17;99822.48;128017;1104;22446;-77
2021/05/23 00:08:07;;;;;;;5.47;3.30;;;;;;;12.21;57.00;99828.97;127522;1107;22459;-76
2021/05/23 00:10:53;;;;;;;5.43;2.90;;;;;;;12.20;56.60;99814.10;127556;1108;23251;-76
2021/05/23 00:13:33;;;;;;;6.87;3.17;;;;;;;12.14;56.90;99820.16;127534;1108;22393;-78
2021/05/23 00:16:12;;;;;;;4.93;2.73;;;;;;;12.14;57.05;99828.09;127779;1101;22399;-77
2021/05/23 00:18:47;;;;;;;4.68;3.00;;;;;;;12.13;57.12;99823.83;127594;1103;22397;-77
2021/05/23 00:21:22;;;;;;;6.73;2.70;;;;;;;12.12;57.04;99827.45;127573;1108;22497;-78
2021/05/23 00:23:53;;;;;;;5.95;2.80;;;;;;;12.14;57.12;99830.75;127629;1105;22389;-78
2021/05/23 00:26:25;;;;;;;4.83;2.90;;;;;;;12.15;57.11;99834.21;127194;1103;22412;-77
2021/05/23 00:28:55;;;;;;;9.55;3.03;;;;;;;12.13;57.07;99834.41;127051;1104;24534;-78
2021/05/23 00:31:32;;;;;;;5.95;2.65;;;;;;;12.12;57.24;99837.23;127486;1108;22402;-78
2021/05/23 00:34:03;;;;;;;6.98;3.18;;;;;;;12.10;57.00;99829.50;127065;1111;22388;-77
2021/05/23 00:36:33;;;;;;;5.10;2.90;;;;;;;12.06;56.93;99832.70;127034;1108;22400;-77
2021/05/23 00:39:05;;;;;;;7.20;2.50;;;;;;;12.02;57.07;99829.61;127050;1106;24511;-77
2021/05/23 00:41:35;;;;;;;;;;;;;;;11.94;57.11;99827.92;127555;1107;22388;-78
2021/05/23 00:44:05;;;;;;;7.37;3.00;;;;;;;11.88;57.18;99827.86;127010;1106;22989;-78
2021/05/23 00:46:34;;;;;;;3.73;2.63;;;;;;;11.88;57.12;99830.50;127112;1104;22504;-77
2021/05/23 00:49:04;;;;;;;6.95;2.75;;;;;;;11.89;57.23;99827.66;127519;1104;24527;-78
2021/05/23 00:51:34;;;;;;;4.75;2.60;;;;;;;11.92;57.16;99826.46;127564;1105;22394;-77
2021/05/23 00:54:04;;;;;;;4.20;2.93;;;;;;;11.93;56.98;99828.94;127970;1104;22419;-77
2021/05/23 00:56:35;;;;;;;4.75;3.18;;;;;;;11.96;57.25;99822.42;127923;1104;24138;-77
2021/05/23 00:59:05;;;;;;;3.95;2.60;;;;;;;11.98;57.09;99831.00;127988;1105;22393;-76
2021/05/23 01:01:44;;;;;;;8.18;3.38;;;;;;;12.01;57.18;99822.69;127966;1101;24260;-76
2021/05/23 01:04:14;;;;;;;3.93;2.28;;;;;;;12.01;57.23;99839.39;128164;1098;24352;-78
2021/05/23 01:06:44;;;;;;;5.53;2.98;;;;;;;12.05;57.33;99836.36;128267;1096;24170;-78
2021/05/23 01:09:14;;;;;;;5.05;2.65;;;;;;;12.05;57.06;99837.17;128176;1101;23278;-78
2021/05/23 01:11:43;;;;;;;5.23;2.75;;;;;;;12.06;56.89;99840.64;127938;1104;22400;-79
2021/05/23 01:14:42;;;;;;;5.23;2.75;;;;;;;12.03;56.76;99847.16;127951;1104;22378;-77
2021/05/23 01:17:13;;;;;;;5.78;2.63;;;;;;;11.97;56.81;99851.37;127931;1104;22372;-78
2021/05/23 01:20:10;;;;;;;6.88;2.58;;;;;;;11.94;56.80;99843.80;128024;1104;22383;-78
2021/05/23 01:22:49;;;;;;;7.55;3.50;;;;;;;11.89;56.69;99846.18;127955;1104;22368;-77
2021/05/23 01:25:22;;;;;;;4.80;2.58;;;;;;;11.86;56.79;99848.38;127500;1104;23227;-77
2021/05/23 01:27:53;;;;;;;5.50;3.03;;;;;;;11.80;56.76;99852.59;127483;1108;22416;-78
2021/05/23 01:30:28;;;;;;;3.88;2.80;;;;;;;11.74;56.87;99840.92;127782;1101;22635;-77
2021/05/23 01:33:03;;;;;;;7.50;2.75;;;;;;;11.70;56.90;99841.50;127951;1104;24505;-77
2021/05/23 01:35:39;;;;;;;4.70;2.95;;;;;;;11.64;56.95;99848.34;127616;1105;22800;-77
2021/05/23 01:38:15;;;;;;;4.60;2.50;;;;;;;11.58;57.00;99854.38;127833;1104;22416;-78
2021/05/23 01:40:48;;;;;;;5.85;2.60;;;;;;;11.54;57.11;99848.64;127969;1105;22390;-78
2021/05/23 01:43:19;;;;;;;5.05;2.68;;;;;;;11.53;57.38;99843.55;127985;1104;23159;-78
2021/05/23 01:45:49;;;;;;;7.03;2.50;;;;;;;11.50;57.46;99850.03;128055;1104;22371;-77
2021/05/23 01:48:19;;;;;;;4.65;2.50;;;;;;;11.50;57.41;99851.86;127603;1105;22409;-77
2021/05/23 01:50:49;;;;;;;4.73;2.40;;;;;;;11.49;57.39;99856.30;127978;1101;22383;-77
2021/05/23 01:53:19;;;;;;;5.50;2.80;;;;;;;11.51;57.45;99862.23;128032;1099;22414;-77
2021/05/23 01:55:49;;;;;;;5.43;2.90;;;;;;;11.52;57.11;99868.34;128060;1101;22394;-78
2021/05/23 01:58:19;;;;;;;5.25;3.05;;;;;;;11.50;57.31;99862.44;128056;1103;22820;-78
2021/05/23 02:00:51;;;;;;;5.83;2.70;;;;;;;11.49;57.22;99866.06;128258;1100;23230;-78
2021/05/23 02:03:24;;;;;;;6.65;3.90;;;;;;;11.48;57.26;99875.02;128035;1098;24173;-78
2021/05/23 02:05:57;;;;;;;6.40;2.70;;;;;;;11.43;57.26;99866.80;128142;1101;24281;-78
2021/05/23 02:08:29;;;;;;;4.90;2.93;;;;;;;11.38;57.30;99872.66;128048;1100;25035;-78
2021/05/23 02:11:01;;;;;;;;;;;;;;;11.32;57.33;99873.39;128315;1101;22387;-78
2021/05/23 02:13:31;;;;;;;;;;;;;;;11.20;57.42;99873.05;128304;1101;21270;-77
2021/05/23 02:16:02;;;;;;;5.38;2.60;;;;;;;11.16;57.60;99873.58;128267;1101;21267;-77
2021/05/23 02:18:35;;;;;;;4.28;2.38;;;;;;;11.16;57.68;99871.78;128018;1101;22389;-77
2021/05/23 02:21:06;;;;;;;6.95;3.03;;;;;;;11.17;57.69;99880.53;127942;1099;22386;-77
2021/05/23 02:23:36;;;;;;;3.50;2.50;;;;;;;11.14;57.81;99870.32;127997;1104;22398;-82
2021/05/23 02:26:07;;;;;;;4.38;2.95;;;;;;;11.17;58.12;99873.42;127867;1106;22403;-83
2021/05/23 02:28:37;;;;;;;4.98;3.73;;;;;;;11.18;58.13;99867.11;127780;1105;24221;-76
2021/05/23 02:31:07;;;;;;;6.43;3.55;;;;;;;11.21;58.27;99874.69;127494;1105;24224;-78
2021/05/23 02:33:37;;;;;;;4.63;2.58;;;;;;;11.22;57.84;99878.95;127507;1108;22538;-78
2021/05/23 02:36:09;;;;;;;3.45;2.58;;;;;;;11.20;58.05;99875.70;127489;1108;22513;-78
2021/05/23 02:38:40;;;;;;;4.58;2.63;;;;;;;11.17;58.08;99881.34;127580;1101;22448;-79
2021/05/23 02:41:10;;;;;;;4.33;2.40;;;;;;;11.13;58.15;99880.08;127531;1107;22390;-78
2021/05/23 02:43:40;;;;;;;7.30;2.98;;;;;;;11.11;58.26;99879.42;127534;1104;24207;-77
2021/05/23 02:46:10;;;;;;;5.75;2.83;;;;;;;11.12;58.26;99873.13;127515;1105;22376;-77
2021/05/23 02:48:40;;;;;;;6.10;2.93;;;;;;;11.14;58.46;99881.71;127975;1104;23032;-78
2021/05/23 02:51:11;;;;;;;7.60;3.38;;;;;;;11.13;58.50;99882.72;127949;1104;22400;-77
2021/05/23 02:53:42;;;;;;;;;;;;;;;11.07;58.35;99883.45;128049;1104;22495;-77
2021/05/23 02:56:12;;;;;;;5.30;3.00;;;;;;;11.03;58.79;99885.64;127954;1105;21286;-78
2021/05/23 02:58:42;;;;;;;7.53;3.30;;;;;;;11.04;58.76;99897.84;127959;1101;24208;-77
2021/05/23 03:01:13;;;;;;;8.13;3.50;;;;;;;11.06;58.85;99887.92;127950;1101;22491;-77
2021/05/23 03:03:45;;;;;;;7.30;3.68;;;;;;;11.08;58.88;99899.11;127891;1101;22384;-78
2021/05/23 03:06:15;;;;;;;7.73;3.45;;;;;;;11.07;58.97;99901.95;127977;1101;22362;-79
2021/05/23 03:08:45;;;;;;;5.33;3.23;;;;;;;11.08;58.82;99906.23;128004;1101;22417;-77
2021/05/23 03:11:18;;;;;;;5.93;3.75;;;;;;;11.07;58.96;99905.41;127978;1102;22396;-77
2021/05/23 03:13:48;;;;;;;6.15;3.78;;;;;;;11.03;59.04;99904.14;128106;1102;22362;-78
2021/05/23 03:16:18;;;;;;;7.13;2.98;;;;;;;11.04;59.17;99902.31;128030;1101;22676;-78
2021/05/23 03:18:48;;;;;;;6.70;3.30;;;;;;;11.03;59.27;99900.68;128069;1101;24199;-78
2021/05/23 03:21:18;;;;;;;6.53;3.70;;;;;;;11.05;59.16;99907.41;128063;1099;23317;-77
2021/05/23 03:23:47;;;;;;;11.85;4.55;;;;;;;11.06;59.14;99914.34;128271;1101;22813;-78
2021/05/23 03:26:18;;;;;;;6.48;3.48;;;;;;;11.08;59.65;99912.33;128351;1101;22380;-78
2021/05/23 03:28:47;;;;;;;5.13;2.88;;;;;;;11.11;59.30;99920.91;127949;1104;22521;-78
2021/05/23 03:31:17;;;;;;;14.60;3.73;;;;;;;11.11;59.51;99910.33;127970;1104;22370;-78
2021/05/23 03:33:47;;;;;;;8.70;3.65;;;;;;;11.11;59.22;99911.16;127926;1104;22378;-78
2021/05/23 03:36:18;;;;;;;9.00;4.15;;;;;;;11.13;59.29;99918.88;127953;1105;22374;-78
2021/05/23 03:38:48;;;;;;;6.65;3.55;;;;;;;11.12;59.00;99917.25;127994;1104;22377;-78
2021/05/23 03:41:18;;;;;;;8.08;3.60;;;;;;;11.15;59.40;99925.64;127950;1101;24643;-78
2021/05/23 03:43:48;;;;;;;10.60;3.45;;;;;;;11.18;59.42;99925.28;127965;1101;24542;-78
2021/05/23 03:46:18;;;;;;;7.55;3.65;;;;;;;11.23;59.41;99930.86;127944;1101;24186;-78
2021/05/23 03:48:48;;;;;;;4.97;3.00;;;;;;;11.31;59.60;99922.81;128055;1101;22358;-77
2021/05/23 03:51:18;;;;;;;7.60;3.65;;;;;;;11.40;59.26;99920.09;128060;1101;23138;-78
2021/05/23 03:53:48;;;;;;;5.57;3.50;;;;;;;11.49;59.30;99924.26;128216;1101;22380;-79
2021/05/23 03:56:18;;;;;;;7.78;3.53;;;;;;;11.54;59.20;99928.00;128070;1102;22359;-76
2021/05/23 03:58:48;;;;;;;7.08;3.45;;;;;;;11.55;58.74;99937.57;128018;1101;22428;-77
2021/05/23 04:01:18;;;;;;;5.85;3.68;;;;;;;11.59;59.11;99938.02;128024;1099;22820;-78
2021/05/23 04:03:48;;;;;;;7.18;3.60;;;;;;;11.62;59.01;99937.66;128249;1101;23076;-80
2021/05/23 04:06:18;;;;;;;5.43;3.48;;;;;;;11.67;59.00;99940.58;128061;1103;22374;-78
2021/05/23 04:08:48;;;;;;;5.83;3.45;;;;;;;11.68;58.84;99944.05;128008;1101;22361;-78
2021/05/23 04:11:22;;;;;;;6.05;3.50;;;;;;;11.68;58.78;99944.86;128296;1098;22379;-78
2021/05/23 04:13:52;;;;;;;4.85;2.98;;;;;;;11.71;59.14;99939.20;128231;1098;24491;-78
2021/05/23 04:16:22;;;;;;;6.50;4.43;;;;;;;11.75;59.25;99942.30;127974;1104;22379;-77
2021/05/23 04:18:52;;;;;;;8.10;3.33;;;;;;;11.80;59.13;99944.41;127935;1101;24358;-77
2021/05/23 04:21:22;;;;;;;7.50;3.23;;;;;;;11.89;59.11;99945.94;127996;1105;23259;-78
2021/05/23 04:23:52;;;;;;;6.88;3.28;;;;;;;11.98;59.18;99950.13;127863;1104;22937;-77
2021/05/23 04:26:22;;;;;;;5.20;3.08;;;;;;;11.96;58.55;99947.68;127898;1101;24608;-78
2021/05/23 04:28:52;;;;;;;6.45;3.70;;;;;;;11.95;58.39;99947.85;127912;1105;22390;-78
2021/05/23 04:31:22;;;;;;;5.63;2.93;;;;;;;11.98;58.70;99939.54;127932;1104;22409;-78
2021/05/23 04:33:51;;;;;;;9.58;3.53;;;;;;;12.05;58.75;99947.55;127957;1100;22427;-78
2021/05/23 04:36:21;;;;;;;8.05;3.33;;;;;;;12.11;58.37;99936.22;128019;1102;22389;-78
2021/05/23 04:38:51;;;;;;;4.38;2.93;;;;;;;12.16;58.29;99941.75;128038;1101;22397;-78
2021/05/23 04:41:21;;;;;;;6.20;3.63;;;;;;;12.23;58.34;99954.08;128006;1102;22364;-78
2021/05/23 04:43:51;;;;;;;6.43;3.03;;;;;;;12.33;58.36;99951.13;128062;1101;22359;-78
2021/05/23 04:46:20;;;;;;;5.43;3.40;;;;;;;12.43;58.29;99950.81;128032;1101;22375;-78
2021/05/23 04:48:50;;;;;;;5.70;2.98;;;;;;;12.54;58.39;99960.89;127974;1104;22386;-78
2021/05/23 04:51:26;;;;;;;6.27;2.70;;;;;;;12.65;58.00;99970.97;127985;1101;23150;-78
2021/05/23 04:53:55;;;;;;;9.85;3.73;;;;;;;12.79;57.91;99982.49;127971;1101;24357;-79
2021/05/23 04:56:25;;;;;;;6.60;3.43;;;;;;;12.96;57.68;99990.99;127951;1104;23195;-78
2021/05/23 04:58:58;;;;;;;6.40;3.30;;;;;;;13.07;57.43;99987.83;127972;1104;22396;-77
2021/05/23 05:01:28;;;;;;;4.88;3.05;;;;;;;13.28;57.11;99986.17;127918;1104;22390;-76
2021/05/23 05:03:58;;;;;;;8.00;3.95;;;;;;;13.43;56.66;99981.58;127908;1102;22402;-78
2021/05/23 05:06:29;;;;;;;4.90;2.70;;;;;;;13.60;56.37;99984.73;127933;1100;23168;-76
2021/05/23 05:08:59;;;;;;;5.23;2.60;;;;;;;13.83;56.58;99989.75;128023;1101;22377;-78
2021/05/23 05:11:28;;;;;;;6.70;2.80;;;;;;;14.07;55.78;99991.06;128041;1101;22376;-77
2021/05/23 05:13:58;;;;;;;5.10;2.95;;;;;;;14.33;55.13;99990.32;128057;1101;22380;-78
2021/05/23 05:16:28;;;;;;;6.73;3.18;;;;;;;14.54;54.42;99990.17;128228;1100;23905;-78
2021/05/23 05:18:58;;;;;;;5.53;3.15;;;;;;;14.77;53.91;99999.61;128051;1101;22364;-78
2021/05/23 05:21:28;;;;;;;4.58;2.95;;;;;;;15.03;53.94;99993.48;128012;1101;22386;-78
2021/05/23 05:23:58;;;;;;;6.70;3.03;;;;;;;15.34;53.00;100000.00;128061;1101;22338;-78
2021/05/23 05:26:28;;;;;;;9.00;3.25;;;;;;;15.69;52.82;100001.39;128024;1101;22466;-77
2021/05/23 05:28:57;;;;;;;4.53;3.25;;;;;;;15.98;51.80;99993.88;128056;1101;22381;-78
2021/05/23 05:31:27;;;;;;;5.03;3.33;;;;;;;16.26;51.32;99998.05;128006;1099;22355;-76
2021/05/23 05:33:58;;;;;;;3.20;2.23;;;;;;;16.51;50.59;100006.11;127990;1101;22363;-78
2021/05/23 05:36:28;;;;;;;4.88;2.68;;;;;;;16.78;50.11;99996.92;128292;1101;22361;-77
2021/05/23 05:38:58;;;;;;;5.13;2.18;;;;;;;17.09;49.47;100004.08;127524;1105;22455;-78
2021/05/23 05:41:28;;;;;;;4.80;2.33;;;;;;;17.35;48.45;100013.67;127929;1101;25133;-78
2021/05/23 05:43:58;;;;;;;4.10;2.30;;;;;;;17.63;47.94;100009.70;127549;1107;22460;-78
2021/05/23 05:46:28;;;;;;;3.48;2.53;;;;;;;17.88;47.39;100015.80;127012;1108;23712;-78
2021/05/23 05:48:58;;;;;;;4.35;2.05;;;;;;;18.21;46.24;100013.77;127446;1108;22405;-78
2021/05/23 05:51:28;;;;;;;4.90;2.35;;;;;;;18.53;45.84;100017.84;127012;1108;22395;-78
2021/05/23 05:53:58;;;;;;;3.73;2.33;;;;;;;18.85;44.94;100022.13;126733;1108;22397;-77
2021/05/23 05:56:27;;;;;;;4.75;2.23;;;;;;;19.06;44.53;100029.63;126991;1111;22410;-78
2021/05/23 05:58:57;;;;;;;3.17;2.07;;;;;;;19.38;43.82;100021.23;127002;1110;22416;-78
2021/05/23 06:01:27;;;;;;;5.55;2.63;;;;;;;19.64;43.27;100026.14;127483;1108;22369;-78
2021/05/23 06:03:57;;;;;;;3.65;2.80;;;;;;;19.91;43.12;100021.07;127578;1105;23271;-77
2021/05/23 06:06:27;;;;;;;5.63;2.20;;;;;;;20.20;41.87;100021.92;127645;1101;24517;-78
2021/05/23 06:08:57;;;;;;;3.13;1.98;;;;;;;20.30;41.45;100025.86;127992;1104;22403;-78
2021/05/23 06:11:36;;;;;;;3.90;1.53;;;;;;;20.34;41.13;100021.63;128021;1102;22468;-77
2021/05/23 06:14:06;;;;;;;2.98;1.50;;;;;;;20.46;40.68;100027.77;127970;1104;22475;-78
2021/05/23 06:16:36;;;;;;;4.05;1.60;;;;;;;20.56;40.15;100021.78;128001;1104;23223;-77
2021/05/23 06:19:05;;;;;;;2.47;1.97;;;;;;;20.71;39.70;100035.48;127540;1105;22362;-77
2021/05/23 06:21:38;;;;;;;3.60;2.30;;;;;;;20.93;39.37;100027.53;127621;1105;22662;-78
2021/05/23 06:24:08;;;;;;;2.53;1.55;;;;;;;21.15;39.31;100030.28;127527;1101;22468;-77
2021/05/23 06:26:38;;;;;;;3.68;1.75;;;;;;;21.23;38.24;100042.50;127615;1105;22414;-78
2021/05/23 06:29:09;;;;;;;3.57;1.20;;;;;;;21.14;38.28;100029.47;127929;1101;24368;-77
2021/05/23 06:31:42;;;;;;;2.27;1.67;;;;;;;21.04;38.13;100036.56;127590;1104;22390;-78
2021/05/23 06:34:12;;;;;;;3.90;1.40;;;;;;;20.95;38.46;100035.33;127582;1101;24275;-78
2021/05/23 06:36:45;;;;;;;2.93;1.40;;;;;;;20.81;38.45;100034.84;127949;1104;22372;-78
2021/05/23 06:39:18;;;;;;;4.90;1.70;;;;;;;20.66;38.73;100036.21;127918;1101;22386;-80
2021/05/23 06:41:51;;;;;;;5.45;1.68;;;;;;;20.64;39.19;100035.63;127949;1104;23945;-79
2021/05/23 06:44:32;;;;;;;2.68;1.18;;;;;;;20.71;39.32;100046.21;127520;1108;22383;-77
2021/05/23 06:47:03;;;;;;;4.75;1.65;;;;;;;20.91;39.30;100053.80;127511;1105;24581;-78
2021/05/23 06:49:35;;;;;;;;;;;;;;;20.90;38.35;100049.50;127671;1105;22402;-78
2021/05/23 06:52:05;;;;;;;1.75;0.78;;;;;;;20.84;38.77;100053.15;127492;1104;21366;-78
2021/05/23 06:54:35;;;;;;;3.15;1.38;;;;;;;20.88;38.97;100049.72;127596;1102;24174;-78
2021/05/23 06:57:06;;;;;;;2.20;1.20;;;;;;;20.93;39.01;100053.58;127535;1104;22388;-78
2021/05/23 06:59:35;;;;;;;2.15;1.13;;;;;;;20.85;38.58;100046.71;127564;1107;22390;-77
2021/05/23 07:02:05;;;;;;;1.68;0.83;;;;;;;20.71;38.40;100053.45;127467;1102;22410;-77
2021/05/23 07:04:35;;;;;;;3.23;1.28;;;;;;;20.60;38.15;100055.95;127530;1104;22390;-77
2021/05/23 07:07:05;;;;;;;1.68;0.78;;;;;;;20.37;38.33;100064.08;127628;1103;22385;-78
2021/05/23 07:09:35;;;;;;;1.70;0.75;;;;;;;20.27;38.59;100069.25;127803;1101;22393;-78
2021/05/23 07:12:06;;;;;;;3.80;1.13;;;;;;;20.22;38.62;100069.94;128201;1101;22491;-77
2021/05/23 07:14:36;;;;;;;3.05;1.55;;;;;;;20.41;38.93;100078.64;128065;1101;22365;-78
2021/05/23 07:17:06;;;;;;;4.33;2.53;;;;;;;20.58;38.76;100079.53;128066;1101;22352;-77
2021/05/23 07:19:35;;;;;;;2.50;1.20;;;;;;;20.88;38.06;100087.31;128008;1101;22365;-77
2021/05/23 07:22:05;;;;;;;5.33;1.35;;;;;;;21.05;37.48;100081.14;128057;1101;22377;-78
2021/05/23 07:24:35;;;;;;;4.30;1.20;;;;;;;21.15;36.95;100079.44;128238;1101;22379;-77
2021/05/23 07:27:05;;;;;;;5.15;1.50;;;;;;;21.35;37.09;100078.97;128022;1101;22469;-79
2021/05/23 07:29:35;;;;;;;1.48;0.70;;;;;;;21.53;36.38;100091.36;128248;1101;22481;-78
2021/05/23 07:32:06;;;;;;;3.55;1.00;;;;;;;21.81;36.37;100090.39;128086;1101;22376;-78
2021/05/23 07:34:35;;;;;;;1.85;0.98;;;;;;;22.12;35.78;100098.86;128026;1101;23144;-78
2021/05/23 07:37:08;;;;;;;3.85;2.70;;;;;;;22.24;35.31;100107.66;127983;1099;22384;-78
2021/05/23 07:39:38;;;;;;;1.93;0.90;;;;;;;22.24;35.08;100099.59;128102;1101;22354;-77
2021/05/23 07:42:08;;;;;;;2.95;1.40;;;;;;;22.31;34.95;100088.63;128024;1101;22409;-78
2021/05/23 07:44:37;;;;;;;3.38;1.18;;;;;;;22.37;35.24;100095.70;127998;1104;22532;-78
2021/05/23 07:47:07;;;;;;;5.03;0.85;;;;;;;22.38;35.09;100091.94;127646;1105;22366;-78
2021/05/23 07:49:41;;;;;;;2.90;1.30;;;;;;;22.16;35.06;100091.97;127658;1106;22382;-79
2021/05/23 07:52:13;;;;;;;1.73;1.10;;;;;;;21.96;35.53;100092.49;127542;1107;22406;-77
2021/05/23 07:54:43;;;;;;;3.98;1.53;;;;;;;21.88;35.40;100092.91;127594;1105;22397;-78
2021/05/23 07:57:12;;;;;;;2.43;1.38;;;;;;;21.66;35.14;100082.14;127124;1108;22497;-78
2021/05/23 07:59:44;;;;;;;6.63;1.20;;;;;;;21.59;35.85;100087.69;127481;1107;22401;-78
2021/05/23 08:02:14;;;;;;;1.60;1.00;;;;;;;21.54;35.57;100095.66;127126;1105;23180;-78
2021/05/23 08:04:44;;;;;;;1.75;0.63;;;;;;;21.61;36.01;100088.23;127655;1105;24300;-78
2021/05/23 08:07:14;;;;;;;2.20;0.70;;;;;;;21.69;35.83;100105.00;127587;1107;22399;-78
2021/05/23 08:09:44;;;;;;;5.25;1.68;;;;;;;21.61;35.47;100098.98;127545;1101;22393;-77
2021/05/23 08:12:14;;;;;;;2.65;2.35;;;;;;;21.49;35.69;100109.03;128053;1101;22364;-78
2021/05/23 08:14:46;;;;;;;1.88;0.95;;;;;;;21.39;36.53;100100.80;128019;1099;24491;-78
2021/05/23 08:17:15;;;;;;;3.15;1.63;;;;;;;21.33;36.07;100101.77;128076;1101;22468;-78
2021/05/23 08:19:45;;;;;;;5.63;1.75;;;;;;;21.21;36.20;100095.65;127999;1102;22404;-78
2021/05/23 08:22:15;;;;;;;1.95;1.00;;;;;;;21.00;36.64;100095.31;128295;1101;22391;-79
2021/05/23 08:24:47;;;;;;;3.65;1.08;;;;;;;20.89;37.17;100099.70;128018;1100;24485;-79
2021/05/23 08:27:17;;;;;;;2.58;1.40;;;;;;;20.88;37.10;100098.05;128107;1100;24175;-78
2021/05/23 08:29:47;;;;;;;3.10;1.58;;;;;;;21.06;37.32;100102.41;128029;1099;22383;-78
2021/05/23 08:32:17;;;;;;;2.28;1.08;;;;;;;21.26;37.41;100111.84;128050;1100;22358;-78
2021/05/23 08:34:46;;;;;;;1.70;1.10;;;;;;;21.35;36.41;100113.91;128035;1101;22365;-78
2021/05/23 08:37:18;;;;;;;3.63;1.63;;;;;;;21.23;36.34;100118.53;128265;1101;22824;-78
2021/05/23 08:39:48;;;;;;;3.68;1.70;;;;;;;21.09;36.50;100107.30;128033;1101;22771;-78
2021/05/23 08:42:18;;;;;;;4.70;2.25;;;;;;;21.19;37.51;100116.55;127598;1105;22495;-79
2021/05/23 08:44:48;;;;;;;2.53;1.50;;;;;;;21.47;36.86;100118.40;127958;1105;22478;-78
2021/05/23 08:47:19;;;;;;;4.48;1.48;;;;;;;21.58;36.67;100112.91;127529;1108;22394;-78
2021/05/23 08:49:51;;;;;;;6.37;1.50;;;;;;;21.55;36.07;100113.41;127706;1105;22383;-78
2021/05/23 08:52:21;;;;;;;2.18;1.40;;;;;;;21.63;36.32;100106.82;127654;1106;22402;-78
2021/05/23 08:54:51;;;;;;;3.90;1.48;;;;;;;21.84;36.38;100107.91;127438;1107;22398;-77
2021/05/23 08:57:23;;;;;;;2.88;1.18;;;;;;;22.15;35.87;100117.22;127496;1105;24297;-78
2021/05/23 08:59:53;;;;;;;1.98;1.10;;;;;;;22.38;35.27;100126.92;127594;1105;22411;-78
2021/05/23 09:02:25;;;;;;;4.70;2.20;;;;;;;22.54;34.90;100125.23;127990;1101;22386;-79
2021/05/23 09:04:55;;;;;;;2.68;1.55;;;;;;;22.86;34.86;100127.16;127613;1105;23266;-77
2021/05/23 09:07:26;;;;;;;4.30;1.33;;;;;;;23.20;34.11;100138.58;127943;1104;22370;-78
2021/05/23 09:09:55;;;;;;;3.77;1.00;;;;;;;23.49;33.42;100128.27;127940;1104;23147;-78
2021/05/23 09:12:25;;;;;;;2.55;1.58;;;;;;;23.73;33.18;100126.06;127961;1101;22377;-78
2021/05/23 09:14:55;;;;;;;4.53;1.25;;;;;;;24.03;32.44;100122.73;127978;1102;22399;-78
2021/05/23 09:17:29;;;;;;;2.73;0.90;;;;;;;24.23;31.24;100130.11;127953;1104;22435;-78
2021/05/23 09:19:59;;;;;;;1.65;0.98;;;;;;;24.00;30.54;100138.63;127502;1104;24574;-77
2021/05/23 09:22:29;;;;;;;3.03;0.73;;;;;;;23.64;30.44;100138.38;127500;1108;22397;-79
2021/05/23 09:25:05;;;;;;;1.88;0.70;;;;;;;23.07;30.76;100137.11;127612;1107;22415;-78
2021/05/23 09:27:44;;;;;;;1.90;0.90;;;;;;;22.54;31.73;100147.58;127598;1104;22402;-79
2021/05/23 09:30:19;;;;;;;2.80;1.40;;;;;;;22.11;31.97;100123.33;127599;1107;22402;-78
2021/05/23 09:32:52;;;;;;;2.03;1.00;;;;;;;21.70;32.35;100130.84;127015;1106;22415;-78
2021/05/23 09:35:23;;;;;;;4.10;0.73;;;;;;;21.38;32.79;100142.97;127261;1108;22415;-79
2021/05/23 09:38:02;;;;;;;;;;;;;;;21.07;32.98;100141.63;127078;1108;22503;-77
2021/05/23 09:40:38;;;;;;;1.50;0.68;;;;;;;20.91;33.62;100137.03;127162;1107;22998;-79
2021/05/23 09:43:17;;;;;;;2.15;0.83;;;;;;;20.84;34.40;100142.55;127551;1105;22382;-77
2021/05/23 09:45:53;;;;;;;2.48;0.80;;;;;;;20.88;34.55;100149.06;127699;1105;22471;-78
2021/05/23 09:48:26;;;;;;;1.85;0.85;;;;;;;21.00;33.89;100151.70;127606;1105;22404;-79
2021/05/23 09:51:09;;;;;;;2.20;0.98;;;;;;;21.35;34.56;100148.83;127709;1102;22349;-78
2021/05/23 09:53:42;;;;;;;6.23;2.83;;;;;;;21.63;33.38;100157.89;128318;1101;25020;-78
2021/05/23 09:56:14;;;;;;;1.83;1.10;;;;;;;21.81;33.88;100165.69;128017;1101;22455;-79
2021/05/23 09:58:50;;;;;;;2.23;0.90;;;;;;;22.08;33.97;100160.41;128052;1102;22503;-79
2021/05/23 10:01:34;;;;;;;2.20;1.10;;;;;;;22.33;33.62;100155.67;128054;1101;22348;-78
2021/05/23 10:04:04;;;;;;;4.20;1.20;;;;;;;22.41;33.22;100165.98;127959;1101;22948;-77
2021/05/23 10:06:35;;;;;;;3.03;1.00;;;;;;;22.36;33.16;100158.67;128000;1104;22455;-78
2021/05/23 10:09:07;;;;;;;2.90;0.95;;;;;;;22.36;33.08;100165.91;127652;1105;22474;-80
2021/05/23 10:11:36;;;;;;;8.50;1.97;;;;;;;22.48;32.96;100174.69;128186;1104;22387;-79
2021/05/23 10:14:06;;;;;;;5.35;1.88;;;;;;;22.60;33.17;100178.07;127940;1104;22384;-79
2021/05/23 10:16:37;;;;;;;4.23;1.88;;;;;;;22.51;32.45;100183.06;127985;1101;22374;-78
2021/05/23 10:19:07;;;;;;;2.70;0.98;;;;;;;22.34;32.42;100190.39;127556;1104;22542;-79
2021/05/23 10:21:36;;;;;;;2.45;0.90;;;;;;;22.05;32.09;100187.00;127649;1101;22377;-80
2021/05/23 10:24:07;;;;;;;2.50;0.80;;;;;;;21.87;32.27;100189.97;127865;1107;22400;-79
2021/05/23 10:27:03;;;;;;;1.90;0.80;;;;;;;21.71;32.60;100180.85;127592;1107;22401;-80
2021/05/23 10:29:38;;;;;;;1.88;0.80;;;;;;;21.50;32.74;100172.47;127667;1108;22624;-81
2021/05/23 10:32:15;;;;;;;3.03;1.40;;;;;;;21.35;33.36;100173.02;127755;1107;22507;-80
2021/05/23 10:34:48;;;;;;;3.83;0.80;;;;;;;21.26;32.87;100179.00;127561;1103;24550;-77
2021/05/23 10:37:30;;;;;;;4.78;2.65;;;;;;;21.05;33.71;100170.58;127241;1105;24621;-81
2021/05/23 10:40:01;;;;;;;3.25;1.20;;;;;;;20.86;33.54;100183.41;127542;1108;22380;-79
2021/05/23 10:42:31;;;;;;;2.40;1.03;;;;;;;20.65;33.82;100192.10;127695;1105;22494;-77
2021/05/23 10:45:02;;;;;;;3.08;1.20;;;;;;;20.48;34.03;100192.00;127669;1101;22378;-77
2021/05/23 10:47:34;;;;;;;4.38;1.10;;;;;;;20.35;34.21;100186.89;127599;1105;22487;-77
2021/05/23 10:50:08;;;;;;;4.63;1.10;;;;;;;20.14;33.91;100186.45;127656;1104;22394;-78
2021/05/23 10:52:40;;;;;;;1.88;1.10;;;;;;;19.98;34.56;100189.84;128040;1102;22383;-79
2021/05/23 10:55:16;;;;;;;2.08;0.88;;;;;;;19.95;34.88;100206.39;128319;1099;22286;-80
2021/05/23 10:57:56;;;;;;;3.65;1.00;;;;;;;19.92;34.77;100193.45;128041;1101;22810;-81
2021/05/23 11:00:36;;;;;;;2.88;1.20;;;;;;;19.91;35.70;100194.52;128090;1104;22445;-78
2021/05/23 11:03:16;;;;;;;3.03;1.00;;;;;;;19.92;35.81;100188.91;127916;1101;24217;-78
2021/05/23 11:05:47;;;;;;;3.68;1.33;;;;;;;19.91;36.13;100197.19;127526;1108;22459;-79
2021/05/23 11:08:17;;;;;;;5.18;1.68;;;;;;;19.81;35.74;100188.91;127563;1108;22382;-79
2021/05/23 11:10:51;;;;;;;3.48;2.15;;;;;;;19.69;35.53;100184.38;127525;1108;22415;-78
2021/05/23 11:13:32;;;;;;;2.25;1.30;;;;;;;19.61;35.13;100197.25;127491;1106;22398;-78
2021/05/23 11:16:17;;;;;;;3.45;0.90;;;;;;;19.53;35.86;100195.73;127468;1106;22392;-79
2021/05/23 11:18:49;;;;;;;2.53;0.78;;;;;;;19.49;36.32;100199.89;127405;1108;22419;-78
2021/05/23 11:21:19;;;;;;;1.95;0.63;;;;;;;19.51;35.97;100200.50;127538;1108;22407;-78
2021/05/23 11:23:54;;;;;;;5.38;0.90;;;;;;;19.57;35.91;100204.13;127474;1103;24256;-78
2021/05/23 11:26:32;;;;;;;1.80;0.53;;;;;;;19.64;35.58;100194.95;127931;1101;22378;-79
2021/05/23 11:29:04;;;;;;;2.58;0.80;;;;;;;19.65;35.61;100190.41;127993;1101;22369;-78
2021/05/23 11:31:39;;;;;;;4.78;0.95;;;;;;;19.70;35.15;100190.55;127980;1101;22357;-77
2021/05/23 11:34:09;;;;;;;2.68;0.93;;;;;;;19.72;35.68;100183.88;128019;1102;23400;-77
2021/05/23 11:36:39;;;;;;;2.10;1.20;;;;;;;19.81;35.39;100184.37;128001;1101;22360;-77
2021/05/23 11:39:12;;;;;;;6.40;1.27;;;;;;;19.84;35.26;100186.58;128039;1101;22389;-77
2021/05/23 11:41:48;;;;;;;2.90;0.83;;;;;;;19.78;34.57;100170.61;128231;1101;22377;-78